createdAt,value
2023-05-19T00:00:15.418Z,102125.34
2023-05-19T00:02:47.956Z,102121.81
2023-05-19T00:05:20.370Z,102122.72
2023-05-19T00:07:53.856Z,102122.72
2023-05-19T00:10:31.567Z,102113.88
2023-05-19T00:13:04.439Z,102120.09
2023-05-19T00:15:36.768Z,102119.22
2023-05-19T00:18:09.089Z,102115.66
2023-05-19T00:20:41.409Z,102112.97
2023-05-19T00:23:13.421Z,102111.22
2023-05-19T00:25:45.640Z,102110.34
2023-05-19T00:28:17.658Z,102119.28
2023-05-19T00:30:50.939Z,102121.06
2023-05-19T00:33:22.977Z,102123.75
2023-05-19T00:35:55.187Z,102121.06
2023-05-19T00:38:27.264Z,102113.03
2023-05-19T00:41:00.203Z,102117.53
2023-05-19T00:43:35.724Z,102113.03
2023-05-19T00:46:07.934Z,102113.97
2023-05-19T00:48:40.391Z,102109.53
2023-05-19T00:51:14.875Z,102120.25
2023-05-19T00:53:49.478Z,102118.53
2023-05-19T00:56:22.575Z,102115.84
2023-05-19T00:58:54.917Z,102116.75
2023-05-19T01:01:28.394Z,102104.22
2023-05-19T01:04:01.434Z,102103.34
2023-05-19T01:06:35.043Z,102104.25
2023-05-19T01:09:07.720Z,102110.59
2023-05-19T01:11:40.036Z,102118.63
2023-05-19T01:14:12.698Z,102118.63
2023-05-19T01:16:58.519Z,102119.53
2023-05-19T01:19:49.611Z,102121.34
2023-05-19T01:22:32.441Z,102119.59
2023-05-19T01:25:21.549Z,102118.72
2023-05-19T01:28:16.101Z,102109.81
2023-05-19T01:30:52.689Z,102112.53
2023-05-19T01:33:25.237Z,102101.81
2023-05-19T01:35:59.574Z,102092.00
2023-05-19T01:38:33.999Z,102085.78
2023-05-19T01:41:08.178Z,102098.22
2023-05-19T01:43:40.730Z,102106.34
2023-05-19T01:46:13.900Z,102116.19
2023-05-19T01:48:47.889Z,102117.06
2023-05-19T01:51:19.990Z,102108.19
2023-05-19T01:53:52.119Z,102105.50
2023-05-19T01:56:37.249Z,102111.78
2023-05-19T01:59:16.729Z,102127.00
2023-05-19T02:01:53.365Z,102122.59
2023-05-19T02:04:32.426Z,102108.28
2023-05-19T02:07:15.826Z,102108.28
2023-05-19T02:09:56.992Z,102111.03
2023-05-19T02:12:31.735Z,102107.47
2023-05-19T02:15:06.344Z,102096.75
2023-05-19T02:17:47.787Z,102097.66
2023-05-19T02:20:22.349Z,102103.97
2023-05-19T02:22:54.553Z,102095.94
2023-05-19T02:25:27.246Z,102093.28
2023-05-19T02:27:59.565Z,102099.53
2023-05-19T02:30:34.926Z,102097.75
2023-05-19T02:33:07.754Z,102097.75
2023-05-19T02:35:41.007Z,102095.16
2023-05-19T02:38:13.417Z,102093.41
2023-05-19T02:40:45.552Z,102085.41
2023-05-19T02:43:17.597Z,102087.16
2023-05-19T02:45:50.163Z,102090.75
2023-05-19T02:48:22.272Z,102087.25
2023-05-19T02:50:54.504Z,102093.50
2023-05-19T02:53:26.785Z,102097.03
2023-05-19T02:55:59.966Z,102097.13
2023-05-19T02:58:32.177Z,102087.34
2023-05-19T03:01:04.411Z,102087.34
2023-05-19T03:03:36.911Z,102088.22
2023-05-19T03:06:09.389Z,102097.22
2023-05-19T03:08:42.445Z,102086.53
2023-05-19T03:11:15.597Z,102088.31
2023-05-19T03:13:47.691Z,102098.19
2023-05-19T03:16:20.215Z,102104.44
2023-05-19T03:18:52.478Z,102096.41
2023-05-19T03:21:24.741Z,102097.34
2023-05-19T03:23:56.927Z,102096.47
2023-05-19T03:26:29.401Z,102098.28
2023-05-19T03:29:02.306Z,102091.16
2023-05-19T03:31:37.391Z,102087.59
2023-05-19T03:34:11.130Z,102084.91
2023-05-19T03:36:45.135Z,102079.59
2023-05-19T03:39:20.890Z,102083.22
2023-05-19T03:41:54.252Z,102079.66
2023-05-19T03:44:26.315Z,102079.66
2023-05-19T03:46:58.509Z,102066.31
2023-05-19T03:49:46.304Z,102079.69
2023-05-19T03:52:48.941Z,102074.38
2023-05-19T03:55:34.549Z,102078.88
2023-05-19T03:58:06.678Z,102073.53
2023-05-19T04:00:38.802Z,102071.75
2023-05-19T04:03:11.184Z,102073.56
2023-05-19T04:05:43.358Z,102074.44
2023-05-19T04:08:15.786Z,102080.75
2023-05-19T04:10:47.901Z,102078.97
2023-05-19T04:13:21.333Z,102079.03
2023-05-19T04:15:53.611Z,102075.47
2023-05-19T04:18:28.249Z,102076.34
2023-05-19T04:21:01.886Z,102080.84
2023-05-19T04:23:34.076Z,102075.47
2023-05-19T04:26:06.761Z,102079.06
2023-05-19T04:28:42.294Z,102085.38
2023-05-19T04:31:15.198Z,102092.50
2023-05-19T04:33:48.295Z,102094.31
2023-05-19T04:36:21.808Z,102091.66
2023-05-19T04:39:05.686Z,102089.00
2023-05-19T04:41:40.583Z,102090.81
2023-05-19T04:44:18.098Z,102092.56
2023-05-19T04:46:54.460Z,102083.69
2023-05-19T04:49:28.158Z,102089.06
2023-05-19T04:52:00.479Z,102090.00
2023-05-19T04:54:36.230Z,102090.88
2023-05-19T04:57:08.489Z,102088.25
2023-05-19T04:59:43.901Z,102082.88
2023-05-19T05:02:16.284Z,102083.78
2023-05-19T05:04:49.106Z,102077.53
2023-05-19T05:07:22.771Z,102076.66
2023-05-19T05:09:57.372Z,102073.97
2023-05-19T05:12:29.932Z,102082.88
2023-05-19T05:15:02.739Z,102076.66
2023-05-19T05:17:35.583Z,102082.00
2023-05-19T05:20:10.029Z,102080.25
2023-05-19T05:22:42.448Z,102081.13
2023-05-19T05:25:16.380Z,102069.50
2023-05-19T05:27:48.863Z,102067.72
2023-05-19T05:30:21.007Z,102075.75
2023-05-19T05:32:53.492Z,102069.53
2023-05-19T05:35:39.070Z,102071.28
2023-05-19T05:38:12.704Z,102075.75
2023-05-19T05:40:45.757Z,102067.72
2023-05-19T05:43:18.018Z,102066.81
2023-05-19T05:45:56.506Z,102066.81
2023-05-19T05:48:29.314Z,102074.84
2023-05-19T05:51:01.716Z,102066.81
2023-05-19T05:53:41.757Z,102065.94
2023-05-19T05:56:14.824Z,102071.25
2023-05-19T05:58:53.825Z,102059.69
2023-05-19T06:01:26.566Z,102063.25
2023-05-19T06:03:59.278Z,102065.94
2023-05-19T06:06:32.724Z,102054.31
2023-05-19T06:09:07.211Z,102050.72
2023-05-19T06:11:39.524Z,102059.69
2023-05-19T06:14:12.523Z,102065.03
2023-05-19T06:17:07.701Z,102053.47
2023-05-19T06:19:40.198Z,102057.00
2023-05-19T06:22:12.617Z,102053.47
2023-05-19T06:24:44.787Z,102058.81
2023-05-19T06:27:17.093Z,102057.94
2023-05-19T06:29:49.446Z,102057.06
2023-05-19T06:32:22.387Z,102069.59
2023-05-19T06:34:54.704Z,102056.19
2023-05-19T06:37:27.083Z,102055.31
2023-05-19T06:40:00.078Z,102055.31
2023-05-19T06:42:32.758Z,102050.81
2023-05-19T06:45:21.948Z,102049.06
2023-05-19T06:47:58.382Z,102060.69
2023-05-19T06:50:31.178Z,102053.50
2023-05-19T06:53:03.380Z,102049.06
2023-05-19T06:55:43.958Z,102047.28
2023-05-19T06:58:26.842Z,102048.19
2023-05-19T07:00:59.050Z,102049.06
2023-05-19T07:03:36.101Z,102056.19
2023-05-19T07:06:09.060Z,102055.31
2023-05-19T07:08:41.804Z,102054.41
2023-05-19T07:11:14.546Z,102064.22
2023-05-19T07:13:48.160Z,102066.84
2023-05-19T07:16:26.374Z,102065.03
2023-05-19T07:19:00.520Z,102066.81
2023-05-19T07:21:32.689Z,102067.66
2023-05-19T07:24:06.036Z,102066.81
2023-05-19T07:26:38.537Z,102068.56
2023-05-19T07:29:10.656Z,102075.66
2023-05-19T07:31:42.870Z,102093.56
2023-05-19T07:34:15.091Z,102107.81
2023-05-19T07:36:47.269Z,102106.94
2023-05-19T07:39:19.700Z,102115.84
2023-05-19T07:41:55.740Z,102112.31
2023-05-19T07:44:27.951Z,102111.41
2023-05-19T07:47:00.861Z,102109.59
2023-05-19T07:49:33.060Z,102107.78
2023-05-19T07:52:05.873Z,102109.53
2023-05-19T07:54:38.120Z,102112.16
2023-05-19T07:57:10.194Z,102098.78
2023-05-19T07:59:42.398Z,102108.53
2023-05-19T08:02:14.528Z,102117.50
2023-05-19T08:04:46.775Z,102118.34
2023-05-19T08:07:18.924Z,102115.63
2023-05-19T08:09:51.534Z,102109.34
2023-05-19T08:12:24.369Z,102110.22
2023-05-19T08:14:57.794Z,102108.41
2023-05-19T08:17:31.213Z,102106.59
2023-05-19T08:20:05.372Z,102116.41
2023-05-19T08:22:37.696Z,102115.53
2023-05-19T08:25:10.461Z,102106.56
2023-05-19T08:27:42.591Z,102103.88
2023-05-19T08:30:16.108Z,102102.09
2023-05-19T08:32:48.838Z,102096.72
2023-05-19T08:35:22.687Z,102099.41
2023-05-19T08:37:54.863Z,102102.09
2023-05-19T08:40:30.643Z,102130.63
2023-05-19T08:43:03.645Z,102142.25
2023-05-19T08:45:35.910Z,102130.63
2023-05-19T08:48:08.316Z,102129.75
2023-05-19T08:50:42.660Z,102130.63
2023-05-19T08:53:33.743Z,102125.25
2023-05-19T08:56:10.781Z,102127.06
2023-05-19T08:58:44.691Z,102127.03
2023-05-19T09:01:17.282Z,102118.13
2023-05-19T09:03:50.141Z,102109.19
2023-05-19T09:06:23.093Z,102099.34
2023-05-19T09:08:55.438Z,102100.22
2023-05-19T09:11:27.637Z,102094.00
2023-05-19T09:13:59.770Z,102100.22
2023-05-19T09:16:34.153Z,102092.19
2023-05-19T09:19:13.496Z,102093.94
2023-05-19T09:21:45.860Z,102095.69
2023-05-19T09:24:18.351Z,102093.00
2023-05-19T09:26:50.623Z,102099.28
2023-05-19T09:29:22.840Z,102110.84
2023-05-19T09:32:00.462Z,102114.41
2023-05-19T09:34:33.873Z,102111.72
2023-05-19T09:37:06.242Z,102108.16
2023-05-19T09:39:38.757Z,102104.53
2023-05-19T09:42:10.932Z,102112.59
2023-05-19T09:44:43.220Z,102107.22
2023-05-19T09:47:16.531Z,102112.59
2023-05-19T09:49:49.218Z,102117.06
2023-05-19T09:52:22.530Z,102110.84
2023-05-19T09:54:56.213Z,102108.16
2023-05-19T09:57:33.557Z,102110.84
2023-05-19T10:00:14.504Z,102112.59
2023-05-19T10:02:47.699Z,102111.72
2023-05-19T10:05:21.017Z,102112.59
2023-05-19T10:07:54.665Z,102107.22
2023-05-19T10:10:27.455Z,102110.75
2023-05-19T10:13:00.246Z,102113.41
2023-05-19T10:15:36.094Z,102105.31
2023-05-19T10:18:11.378Z,102105.25
2023-05-19T10:20:44.013Z,102101.63
2023-05-19T10:23:16.372Z,102105.19
2023-05-19T10:25:50.010Z,102105.13
2023-05-19T10:28:25.628Z,102105.09
2023-05-19T10:31:00.508Z,102108.63
2023-05-19T10:33:51.569Z,102104.06
2023-05-19T10:36:38.084Z,102103.97
2023-05-19T10:39:17.160Z,102102.06
2023-05-19T10:41:55.514Z,102092.16
2023-05-19T10:44:41.029Z,102093.88
2023-05-19T10:47:13.405Z,102090.16
2023-05-19T10:49:45.936Z,102084.72
2023-05-19T10:52:23.357Z,102090.91
2023-05-19T10:54:55.589Z,102087.25
2023-05-19T10:57:28.357Z,102085.41
2023-05-19T11:00:12.134Z,102077.31
2023-05-19T11:02:44.591Z,102081.72
2023-05-19T11:05:20.464Z,102079.91
2023-05-19T11:08:09.200Z,102071.81
2023-05-19T11:10:43.962Z,102067.31
2023-05-19T11:13:20.074Z,102075.31
2023-05-19T11:15:52.131Z,102068.09
2023-05-19T11:18:24.570Z,102067.16
2023-05-19T11:21:02.480Z,102069.75
2023-05-19T11:23:37.868Z,102065.19
2023-05-19T11:26:10.096Z,102062.41
2023-05-19T11:28:43.504Z,102056.94
2023-05-19T11:31:16.061Z,102064.88
2023-05-19T11:33:48.424Z,102060.34
2023-05-19T11:36:21.755Z,102060.22
2023-05-19T11:38:54.082Z,102064.63
2023-05-19T11:41:28.419Z,102056.47
2023-05-19T11:44:00.639Z,102056.38
2023-05-19T11:46:34.023Z,102059.00
2023-05-19T11:49:07.345Z,102038.28
2023-05-19T11:51:39.614Z,102045.38
2023-05-19T11:54:12.380Z,102034.59
2023-05-19T11:56:44.546Z,102037.16
2023-05-19T11:59:16.717Z,102029.97
2023-05-19T12:01:49.146Z,102034.38
2023-05-19T12:04:21.365Z,102028.00
2023-05-19T12:06:54.705Z,102019.88
2023-05-19T12:09:28.366Z,102022.50
2023-05-19T12:12:01.114Z,102028.69
2023-05-19T12:14:34.529Z,102026.91
2023-05-19T12:17:17.087Z,102025.03
2023-05-19T12:19:50.227Z,102020.53
2023-05-19T12:22:22.453Z,102026.78
2023-05-19T12:24:54.658Z,102024.91
2023-05-19T12:27:27.642Z,102026.66
2023-05-19T12:30:00.161Z,102021.28
2023-05-19T12:32:34.313Z,102027.50
2023-05-19T12:35:06.796Z,102017.56
2023-05-19T12:37:41.733Z,102017.44
2023-05-19T12:40:15.936Z,102020.94
2023-05-19T12:42:52.200Z,102014.66
2023-05-19T12:45:25.842Z,102015.44
2023-05-19T12:47:58.067Z,102012.72
2023-05-19T12:50:31.668Z,102019.75
2023-05-19T12:53:08.731Z,102024.16
2023-05-19T12:55:44.342Z,102016.97
2023-05-19T12:58:16.815Z,102015.22
2023-05-19T13:00:49.884Z,102014.28
2023-05-19T13:03:22.456Z,102014.31
2023-05-19T13:05:54.766Z,102014.28
2023-05-19T13:08:27.797Z,102005.34
2023-05-19T13:10:59.901Z,102013.34
2023-05-19T13:13:32.324Z,102009.75
2023-05-19T13:16:04.625Z,102014.16
2023-05-19T13:18:38.377Z,102010.50
2023-05-19T13:21:10.696Z,102012.22
2023-05-19T13:23:42.771Z,102011.34
2023-05-19T13:26:14.984Z,102004.09
2023-05-19T13:28:48.513Z,102004.09
2023-05-19T13:31:20.676Z,102013.00
2023-05-19T13:33:52.959Z,102004.03
2023-05-19T13:36:25.567Z,102001.34
2023-05-19T13:38:57.688Z,101997.81
2023-05-19T13:41:29.816Z,101994.31
2023-05-19T13:44:02.410Z,101999.75
2023-05-19T13:49:26.788Z,101990.94
2023-05-19T13:51:33.014Z,101998.03
2023-05-19T13:51:59.925Z,101985.69
2023-05-19T13:54:32.283Z,101988.44
2023-05-19T13:57:04.788Z,101986.66
2023-05-19T13:59:43.077Z,101981.34
2023-05-19T14:02:25.457Z,101977.88
2023-05-19T14:04:57.678Z,101975.22
2023-05-19T14:07:30.526Z,101974.38
2023-05-19T14:10:04.085Z,101974.44
2023-05-19T14:12:49.472Z,101973.53
2023-05-19T14:15:28.738Z,101978.03
2023-05-19T14:18:00.893Z,101984.38
2023-05-19T14:20:33.366Z,101982.59
2023-05-19T14:23:05.737Z,101985.34
2023-05-19T14:25:37.858Z,101971.97
2023-05-19T14:28:11.027Z,101976.47
2023-05-19T14:30:43.221Z,101982.72
2023-05-19T14:33:15.504Z,101978.25
2023-05-19T14:35:47.649Z,101981.00
2023-05-19T14:38:19.770Z,101971.22
2023-05-19T14:40:52.124Z,101971.22
2023-05-19T14:43:24.466Z,101974.84
2023-05-19T14:45:56.793Z,101967.72
2023-05-19T14:48:28.940Z,101966.78
2023-05-19T14:51:01.279Z,101969.47
2023-05-19T14:53:33.469Z,101965.78
2023-05-19T14:56:06.550Z,101971.97
2023-05-19T14:58:38.730Z,101967.34
2023-05-19T15:01:10.988Z,101962.72
2023-05-19T15:03:43.219Z,101968.03
2023-05-19T15:06:15.436Z,101966.13
2023-05-19T15:08:47.751Z,101966.00
2023-05-19T15:11:19.870Z,101974.00
2023-05-19T15:13:52.066Z,101970.38
2023-05-19T15:16:24.141Z,101963.13
2023-05-19T15:18:56.876Z,101958.66
2023-05-19T15:21:29.158Z,101952.28
2023-05-19T15:24:01.426Z,101962.69
2023-05-19T15:26:33.897Z,101959.38
2023-05-19T15:29:06.137Z,101959.78
2023-05-19T15:31:38.736Z,101960.34
2023-05-19T15:34:11.032Z,101956.47
2023-05-19T15:36:43.257Z,101961.50
2023-05-19T15:39:15.420Z,101960.59
2023-05-19T15:41:48.118Z,101961.44
2023-05-19T15:44:20.480Z,101957.13
2023-05-19T15:46:52.656Z,101948.19
2023-05-19T15:49:25.300Z,101940.94
2023-05-19T15:51:57.526Z,101946.09
2023-05-19T15:54:30.420Z,101948.88
2023-05-19T15:57:02.567Z,101938.38
2023-05-19T15:59:34.699Z,101941.72
2023-05-19T16:02:07.185Z,101938.31
2023-05-19T16:04:39.394Z,101947.63
2023-05-19T16:07:11.536Z,101946.13
2023-05-19T16:09:43.703Z,101938.97
2023-05-19T16:12:15.921Z,101941.75
2023-05-19T16:14:48.057Z,101938.25
2023-05-19T16:17:20.264Z,101935.63
2023-05-19T16:19:52.361Z,101940.44
2023-05-19T16:22:25.498Z,101936.34
2023-05-19T16:24:57.629Z,101928.78
2023-05-19T16:27:29.748Z,101936.50
2023-05-19T16:30:03.252Z,101929.78
2023-05-19T16:32:35.525Z,101936.56
2023-05-19T16:35:08.417Z,101929.69
2023-05-19T16:37:43.438Z,101935.44
2023-05-19T16:40:15.800Z,101934.84
2023-05-19T16:42:48.020Z,101934.13
2023-05-19T16:45:20.578Z,101928.06
2023-05-19T16:47:52.746Z,101927.31
2023-05-19T16:50:24.908Z,101923.16
2023-05-19T16:52:57.031Z,101920.72
2023-05-19T16:55:29.249Z,101922.75
2023-05-19T16:58:01.581Z,101920.31
2023-05-19T17:00:34.066Z,101915.06
2023-05-19T17:03:06.684Z,101916.97
2023-05-19T17:05:41.934Z,101920.50
2023-05-19T17:08:14.213Z,101921.47
2023-05-19T17:10:47.684Z,101921.59
2023-05-19T17:13:19.794Z,101934.25
2023-05-19T17:15:54.902Z,101916.28
2023-05-19T17:18:26.996Z,101927.66
2023-05-19T17:21:03.439Z,101923.66
2023-05-19T17:23:35.802Z,101930.41
2023-05-19T17:26:07.921Z,101933.66
2023-05-19T17:28:40.015Z,101928.88
2023-05-19T17:31:13.004Z,101934.72
2023-05-19T17:33:45.165Z,101940.63
2023-05-19T17:36:17.222Z,101944.78
2023-05-19T17:38:49.324Z,101942.59
2023-05-19T17:41:22.003Z,101945.94
2023-05-19T17:43:54.219Z,101951.06
2023-05-19T17:46:26.367Z,101943.63
2023-05-19T17:48:59.089Z,101948.00
2023-05-19T17:51:32.796Z,101949.66
2023-05-19T17:54:05.498Z,101951.34
2023-05-19T17:56:40.747Z,101953.09
2023-05-19T17:59:12.943Z,101958.47
2023-05-19T18:01:45.790Z,101963.94
2023-05-19T18:04:18.197Z,101960.44
2023-05-19T18:06:52.882Z,101966.94
2023-05-19T18:09:28.518Z,101968.06
2023-05-19T18:12:02.491Z,101971.94
2023-05-19T18:14:35.370Z,101966.03
2023-05-19T18:17:07.676Z,101971.75
2023-05-19T18:19:39.820Z,101964.03
2023-05-19T18:22:14.890Z,101974.25
2023-05-19T18:24:47.116Z,101969.31
2023-05-19T18:27:19.504Z,101981.25
2023-05-19T18:29:51.643Z,101975.31
2023-05-19T18:32:23.775Z,101972.91
2023-05-19T18:34:56.217Z,101978.63
2023-05-19T18:37:28.691Z,101973.44
2023-05-19T18:40:01.297Z,101981.75
2023-05-19T18:42:34.660Z,101991.75
2023-05-19T18:45:07.133Z,101993.78
2023-05-19T18:47:40.357Z,101993.03
2023-05-19T18:50:13.204Z,101992.34
2023-05-19T18:52:45.389Z,101997.84
2023-05-19T18:55:17.728Z,101997.13
2023-05-19T18:57:49.841Z,101993.66
2023-05-19T19:00:22.204Z,102000.03
2023-05-19T19:02:54.760Z,101995.66
2023-05-19T19:05:27.273Z,102006.47
2023-05-19T19:07:59.507Z,102011.91
2023-05-19T19:10:34.794Z,102019.16
2023-05-19T19:13:07.473Z,102017.44
2023-05-19T19:15:39.892Z,102024.66
2023-05-19T19:18:12.810Z,102026.53
2023-05-19T19:20:45.521Z,102023.03
2023-05-19T19:23:18.106Z,102025.78
2023-05-19T19:25:51.003Z,102029.44
2023-05-19T19:28:23.709Z,102025.97
2023-05-19T19:30:56.308Z,102030.53
2023-05-19T19:33:28.662Z,102032.41
2023-05-19T19:36:01.478Z,102029.78
2023-05-19T19:38:33.719Z,102033.38
2023-05-19T19:41:06.092Z,102040.63
2023-05-19T19:43:38.329Z,102041.59
2023-05-19T19:46:10.571Z,102033.59
2023-05-19T19:48:44.438Z,102039.97
2023-05-19T19:51:16.749Z,102044.44
2023-05-19T19:53:48.877Z,102044.50
2023-05-19T19:56:23.703Z,102054.44
2023-05-19T19:58:59.051Z,102050.94
2023-05-19T20:01:31.753Z,102055.44
2023-05-19T20:04:04.231Z,102052.81
2023-05-19T20:06:37.494Z,102059.97
2023-05-19T20:09:09.726Z,102052.94
2023-05-19T20:11:42.186Z,102061.91
2023-05-19T20:14:14.338Z,102070.91
2023-05-19T20:16:47.263Z,102069.16
2023-05-19T20:19:19.449Z,102066.53
2023-05-19T20:21:51.784Z,102071.91
2023-05-19T20:24:24.034Z,102071.03
2023-05-19T20:26:56.776Z,102076.41
2023-05-19T20:29:29.929Z,102073.78
2023-05-19T20:32:02.084Z,102074.63
2023-05-19T20:34:34.615Z,102081.88
2023-05-19T20:37:07.435Z,102083.69
2023-05-19T20:39:39.562Z,102080.13
2023-05-19T20:42:11.768Z,102088.22
2023-05-19T20:44:44.093Z,102089.13
2023-05-19T20:47:16.442Z,102090.03
2023-05-19T20:49:48.623Z,102078.50
2023-05-19T20:52:21.008Z,102092.84
2023-05-19T20:54:53.893Z,102094.66
2023-05-19T20:57:27.675Z,102093.84
2023-05-19T21:00:01.164Z,102103.69
2023-05-19T21:02:33.332Z,102105.56
2023-05-19T21:05:05.840Z,102110.13
2023-05-19T21:07:38.016Z,102109.28
2023-05-19T21:10:10.480Z,102108.47
2023-05-19T21:12:42.813Z,102105.03
2023-05-19T21:15:15.454Z,102110.50
2023-05-19T21:17:47.864Z,102112.38
2023-05-19T21:20:20.107Z,102116.03
2023-05-19T21:22:52.242Z,102121.44
2023-05-19T21:25:25.041Z,102117.06
2023-05-19T21:27:58.520Z,102117.13
2023-05-19T21:30:30.774Z,102120.78
2023-05-19T21:33:02.952Z,102119.03
2023-05-19T21:35:35.444Z,102123.50
2023-05-19T21:38:22.028Z,102120.88
2023-05-19T21:40:56.517Z,102125.38
2023-05-19T21:43:32.146Z,102122.75
2023-05-19T21:46:08.912Z,102122.75
2023-05-19T21:48:41.718Z,102122.81
2023-05-19T21:51:14.354Z,102120.13
2023-05-19T21:53:46.445Z,102120.16
2023-05-19T21:56:19.581Z,102117.50
2023-05-19T21:58:52.228Z,102125.59
2023-05-19T22:01:24.950Z,102113.13
2023-05-19T22:03:57.793Z,102120.28
2023-05-19T22:06:31.729Z,102117.69
2023-05-19T22:09:04.585Z,102122.16
2023-05-19T22:11:37.128Z,102113.22
2023-05-19T22:14:09.841Z,102122.19
2023-05-19T22:16:42.830Z,102116.81
2023-05-19T22:19:15.870Z,102119.56
2023-05-19T22:21:50.358Z,102117.81
2023-05-19T22:24:24.809Z,102117.81
2023-05-19T22:26:57.087Z,102116.06
2023-05-19T22:29:29.816Z,102114.28
2023-05-19T22:32:02.726Z,102122.34
2023-05-19T22:34:35.378Z,102122.44
2023-05-19T22:37:08.460Z,102123.34
2023-05-19T22:39:41.061Z,102118.03
2023-05-19T22:42:13.906Z,102122.53
2023-05-19T22:44:46.550Z,102127.00
2023-05-19T22:47:18.872Z,102130.63
2023-05-19T22:49:51.809Z,102125.25
2023-05-19T22:52:24.455Z,102119.94
2023-05-19T22:54:57.296Z,102120.88
2023-05-19T22:57:30.205Z,102129.84
2023-05-19T23:00:03.373Z,102132.53
2023-05-19T23:02:37.307Z,102128.97
2023-05-19T23:05:09.517Z,102124.59
2023-05-19T23:07:41.688Z,102134.41
2023-05-19T23:10:13.910Z,102128.19
2023-05-19T23:12:47.280Z,102132.69
2023-05-19T23:15:19.567Z,102132.69
2023-05-19T23:17:51.833Z,102125.56
2023-05-19T23:20:24.040Z,102128.25
2023-05-19T23:22:56.187Z,102134.50
2023-05-19T23:25:28.397Z,102134.50
2023-05-19T23:28:00.584Z,102132.75
2023-05-19T23:30:33.178Z,102133.66
2023-05-19T23:33:05.505Z,102134.63
2023-05-19T23:35:39.564Z,102134.63
2023-05-19T23:38:11.949Z,102136.44
2023-05-19T23:40:44.133Z,102130.16
2023-05-19T23:43:16.241Z,102140.94
2023-05-19T23:45:48.447Z,102137.41
2023-05-19T23:48:21.212Z,102141.00
2023-05-19T23:50:53.427Z,102137.44
2023-05-19T23:53:25.730Z,102140.19
2023-05-19T23:55:58.743Z,102140.19
2023-05-19T23:58:31.093Z,102145.53
